sensor_id;sensor_type;location;lat;lon;timestamp;temperature;humidity
26051;DHT22;13825;53.496;10.020;2022-07-23T00:00:53;16.10;49.00
26051;DHT22;13825;53.496;10.020;2022-07-23T00:03:29;16.30;1.00
26051;DHT22;13825;53.496;10.020;2022-07-23T00:05:59;16.20;1.00
26051;DHT22;13825;53.496;10.020;2022-07-23T00:08:26;16.20;1.00
26051;DHT22;13825;53.496;10.020;2022-07-23T00:10:53;16.20;1.00
26051;DHT22;13825;53.496;10.020;2022-07-23T00:13:26;16.10;1.00
26051;DHT22;13825;53.496;10.020;2022-07-23T00:15:53;16.10;1.00
26051;DHT22;13825;53.496;10.020;2022-07-23T00:18:21;16.10;99.90
26051;DHT22;13825;53.496;10.020;2022-07-23T00:20:48;16.10;99.90
26051;DHT22;13825;53.496;10.020;2022-07-23T00:23:22;16.10;99.90
26051;DHT22;13825;53.496;10.020;2022-07-23T00:25:59;16.10;1.00
26051;DHT22;13825;53.496;10.020;2022-07-23T00:28:42;16.10;99.90
26051;DHT22;13825;53.496;10.020;2022-07-23T00:31:17;16.10;1.00
26051;DHT22;13825;53.496;10.020;2022-07-23T00:33:49;16.10;1.00
26051;DHT22;13825;53.496;10.020;2022-07-23T00:36:32;16.10;99.90
26051;DHT22;13825;53.496;10.020;2022-07-23T00:39:07;16.10;1.00
26051;DHT22;13825;53.496;10.020;2022-07-23T00:41:41;16.00;1.00
26051;DHT22;13825;53.496;10.020;2022-07-23T00:44:28;16.00;1.00
26051;DHT22;13825;53.496;10.020;2022-07-23T00:46:58;16.00;1.00
26051;DHT22;13825;53.496;10.020;2022-07-23T00:49:29;16.00;1.00
26051;DHT22;13825;53.496;10.020;2022-07-23T00:51:59;16.00;54.40
26051;DHT22;13825;53.496;10.020;2022-07-23T00:54:29;16.00;99.90
26051;DHT22;13825;53.496;10.020;2022-07-23T00:56:58;16.00;99.90
26051;DHT22;13825;53.496;10.020;2022-07-23T00:59:37;16.00;1.00
26051;DHT22;13825;53.496;10.020;2022-07-23T01:02:07;15.90;99.90
26051;DHT22;13825;53.496;10.020;2022-07-23T01:04:56;15.90;99.90
26051;DHT22;13825;53.496;10.020;2022-07-23T01:07:28;16.00;99.90
26051;DHT22;13825;53.496;10.020;2022-07-23T01:09:58;15.90;1.00
26051;DHT22;13825;53.496;10.020;2022-07-23T01:12:25;15.90;99.90
26051;DHT22;13825;53.496;10.020;2022-07-23T01:15:00;15.80;99.90
26051;DHT22;13825;53.496;10.020;2022-07-23T01:17:27;15.90;99.90
26051;DHT22;13825;53.496;10.020;2022-07-23T01:19:53;15.80;99.90
26051;DHT22;13825;53.496;10.020;2022-07-23T01:22:21;15.80;99.90
26051;DHT22;13825;53.496;10.020;2022-07-23T01:24:52;15.80;1.00
26051;DHT22;13825;53.496;10.020;2022-07-23T01:27:19;15.80;99.90
26051;DHT22;13825;53.496;10.020;2022-07-23T01:29:49;15.80;99.90
26051;DHT22;13825;53.496;10.020;2022-07-23T01:32:16;15.80;99.90
26051;DHT22;13825;53.496;10.020;2022-07-23T01:34:43;15.80;99.90
26051;DHT22;13825;53.496;10.020;2022-07-23T01:37:10;15.80;34.80
26051;DHT22;13825;53.496;10.020;2022-07-23T01:39:37;15.80;99.90
26051;DHT22;13825;53.496;10.020;2022-07-23T01:42:06;15.70;99.90
26051;DHT22;13825;53.496;10.020;2022-07-23T01:44:34;15.80;1.00
26051;DHT22;13825;53.496;10.020;2022-07-23T01:47:01;15.80;99.90
26051;DHT22;13825;53.496;10.020;2022-07-23T01:49:30;15.80;99.90
26051;DHT22;13825;53.496;10.020;2022-07-23T01:51:57;15.70;99.90
26051;DHT22;13825;53.496;10.020;2022-07-23T01:54:26;15.70;1.00
26051;DHT22;13825;53.496;10.020;2022-07-23T01:56:54;15.70;1.00
26051;DHT22;13825;53.496;10.020;2022-07-23T01:59:25;15.60;16.70
26051;DHT22;13825;53.496;10.020;2022-07-23T02:01:53;15.70;96.80
26051;DHT22;13825;53.496;10.020;2022-07-23T02:04:21;15.70;99.90
26051;DHT22;13825;53.496;10.020;2022-07-23T02:06:49;15.70;1.00
26051;DHT22;13825;53.496;10.020;2022-07-23T02:09:18;15.70;99.90
26051;DHT22;13825;53.496;10.020;2022-07-23T02:11:45;15.70;1.00
26051;DHT22;13825;53.496;10.020;2022-07-23T02:14:12;15.60;99.90
26051;DHT22;13825;53.496;10.020;2022-07-23T02:16:40;15.60;4.30
26051;DHT22;13825;53.496;10.020;2022-07-23T02:19:07;15.60;41.60
26051;DHT22;13825;53.496;10.020;2022-07-23T02:21:34;15.50;99.90
26051;DHT22;13825;53.496;10.020;2022-07-23T02:24:01;15.40;1.00
26051;DHT22;13825;53.496;10.020;2022-07-23T02:26:28;15.40;1.00
26051;DHT22;13825;53.496;10.020;2022-07-23T02:29:00;15.40;1.00
26051;DHT22;13825;53.496;10.020;2022-07-23T02:31:27;15.20;1.00
26051;DHT22;13825;53.496;10.020;2022-07-23T02:33:55;15.30;99.90
26051;DHT22;13825;53.496;10.020;2022-07-23T02:36:26;15.20;99.90
26051;DHT22;13825;53.496;10.020;2022-07-23T02:38:56;15.30;78.10
26051;DHT22;13825;53.496;10.020;2022-07-23T02:41:23;15.30;99.90
26051;DHT22;13825;53.496;10.020;2022-07-23T02:43:50;15.20;99.90
26051;DHT22;13825;53.496;10.020;2022-07-23T02:46:18;15.20;1.00
26051;DHT22;13825;53.496;10.020;2022-07-23T02:48:47;15.20;1.00
26051;DHT22;13825;53.496;10.020;2022-07-23T02:51:15;15.20;1.00
26051;DHT22;13825;53.496;10.020;2022-07-23T02:53:44;15.10;1.00
26051;DHT22;13825;53.496;10.020;2022-07-23T02:56:11;15.10;1.00
26051;DHT22;13825;53.496;10.020;2022-07-23T02:58:38;15.10;1.00
26051;DHT22;13825;53.496;10.020;2022-07-23T03:01:05;15.10;1.00
26051;DHT22;13825;53.496;10.020;2022-07-23T03:03:34;14.90;99.90
26051;DHT22;13825;53.496;10.020;2022-07-23T03:06:04;14.90;99.90
26051;DHT22;13825;53.496;10.020;2022-07-23T03:08:34;14.80;99.90
26051;DHT22;13825;53.496;10.020;2022-07-23T03:11:01;14.80;99.90
26051;DHT22;13825;53.496;10.020;2022-07-23T03:13:33;14.70;99.90
26051;DHT22;13825;53.496;10.020;2022-07-23T03:16:00;14.90;99.90
26051;DHT22;13825;53.496;10.020;2022-07-23T03:18:27;14.90;99.90
26051;DHT22;13825;53.496;10.020;2022-07-23T03:20:53;14.90;99.90
26051;DHT22;13825;53.496;10.020;2022-07-23T03:23:20;14.90;99.90
26051;DHT22;13825;53.496;10.020;2022-07-23T03:25:49;14.90;99.90
26051;DHT22;13825;53.496;10.020;2022-07-23T03:28:21;14.80;1.00
26051;DHT22;13825;53.496;10.020;2022-07-23T03:30:53;14.80;99.90
26051;DHT22;13825;53.496;10.020;2022-07-23T03:33:20;14.90;1.00
26051;DHT22;13825;53.496;10.020;2022-07-23T03:35:52;14.90;1.00
26051;DHT22;13825;53.496;10.020;2022-07-23T03:38:19;14.90;1.00
26051;DHT22;13825;53.496;10.020;2022-07-23T03:40:46;14.90;1.00
26051;DHT22;13825;53.496;10.020;2022-07-23T03:43:14;14.90;1.00
26051;DHT22;13825;53.496;10.020;2022-07-23T03:45:41;14.90;1.00
26051;DHT22;13825;53.496;10.020;2022-07-23T03:48:08;14.90;1.00
26051;DHT22;13825;53.496;10.020;2022-07-23T03:50:36;14.90;1.00
26051;DHT22;13825;53.496;10.020;2022-07-23T03:53:03;14.90;1.00
26051;DHT22;13825;53.496;10.020;2022-07-23T03:55:32;15.00;1.00
26051;DHT22;13825;53.496;10.020;2022-07-23T03:57:59;15.00;1.00
26051;DHT22;13825;53.496;10.020;2022-07-23T04:00:42;15.00;1.00
26051;DHT22;13825;53.496;10.020;2022-07-23T04:03:23;15.10;1.00
26051;DHT22;13825;53.496;10.020;2022-07-23T04:05:50;15.20;1.00
26051;DHT22;13825;53.496;10.020;2022-07-23T04:08:20;15.30;1.00
26051;DHT22;13825;53.496;10.020;2022-07-23T04:10:50;15.40;99.90
26051;DHT22;13825;53.496;10.020;2022-07-23T04:13:17;15.40;99.90
26051;DHT22;13825;53.496;10.020;2022-07-23T04:16:07;15.50;1.00
26051;DHT22;13825;53.496;10.020;2022-07-23T04:19:14;15.60;99.90
26051;DHT22;13825;53.496;10.020;2022-07-23T04:21:55;15.60;99.90
26051;DHT22;13825;53.496;10.020;2022-07-23T04:24:25;15.50;99.90
26051;DHT22;13825;53.496;10.020;2022-07-23T04:26:53;15.50;99.90
26051;DHT22;13825;53.496;10.020;2022-07-23T04:29:20;15.50;99.90
26051;DHT22;13825;53.496;10.020;2022-07-23T04:31:51;15.40;1.00
26051;DHT22;13825;53.496;10.020;2022-07-23T04:34:18;15.50;1.00
26051;DHT22;13825;53.496;10.020;2022-07-23T04:36:45;15.40;99.90
26051;DHT22;13825;53.496;10.020;2022-07-23T04:39:32;15.40;1.00
26051;DHT22;13825;53.496;10.020;2022-07-23T04:42:02;15.30;1.00
26051;DHT22;13825;53.496;10.020;2022-07-23T04:44:34;15.30;1.00
26051;DHT22;13825;53.496;10.020;2022-07-23T04:47:02;15.10;1.00
26051;DHT22;13825;53.496;10.020;2022-07-23T04:49:32;15.20;1.00
26051;DHT22;13825;53.496;10.020;2022-07-23T04:52:15;15.20;1.00
26051;DHT22;13825;53.496;10.020;2022-07-23T04:54:48;15.10;1.00
26051;DHT22;13825;53.496;10.020;2022-07-23T04:57:20;15.20;1.00
26051;DHT22;13825;53.496;10.020;2022-07-23T04:59:57;15.40;1.00
26051;DHT22;13825;53.496;10.020;2022-07-23T05:02:28;15.10;29.50
26051;DHT22;13825;53.496;10.020;2022-07-23T05:05:03;15.10;1.00
26051;DHT22;13825;53.496;10.020;2022-07-23T05:07:30;15.20;9.80
26051;DHT22;13825;53.496;10.020;2022-07-23T05:09:57;15.20;1.00
26051;DHT22;13825;53.496;10.020;2022-07-23T05:12:24;15.30;52.60
26051;DHT22;13825;53.496;10.020;2022-07-23T05:14:51;15.20;76.90
26051;DHT22;13825;53.496;10.020;2022-07-23T05:17:18;15.20;1.00
26051;DHT22;13825;53.496;10.020;2022-07-23T05:23:00;15.30;14.40
26051;DHT22;13825;53.496;10.020;2022-07-23T05:25:27;15.30;1.00
26051;DHT22;13825;53.496;10.020;2022-07-23T05:27:58;15.30;83.30
26051;DHT22;13825;53.496;10.020;2022-07-23T05:30:26;15.50;46.10
26051;DHT22;13825;53.496;10.020;2022-07-23T05:32:53;15.40;77.30
26051;DHT22;13825;53.496;10.020;2022-07-23T05:35:25;15.40;45.70
26051;DHT22;13825;53.496;10.020;2022-07-23T05:37:52;15.50;1.00
26051;DHT22;13825;53.496;10.020;2022-07-23T05:40:19;15.50;1.00
26051;DHT22;13825;53.496;10.020;2022-07-23T05:42:48;15.60;1.00
26051;DHT22;13825;53.496;10.020;2022-07-23T05:45:15;15.70;1.00
26051;DHT22;13825;53.496;10.020;2022-07-23T05:47:44;15.30;1.00
26051;DHT22;13825;53.496;10.020;2022-07-23T05:50:12;15.60;1.00
26051;DHT22;13825;53.496;10.020;2022-07-23T05:52:41;15.60;1.00
26051;DHT22;13825;53.496;10.020;2022-07-23T05:55:10;15.80;1.00
26051;DHT22;13825;53.496;10.020;2022-07-23T05:57:37;15.60;1.00
26051;DHT22;13825;53.496;10.020;2022-07-23T06:00:07;15.60;1.00
26051;DHT22;13825;53.496;10.020;2022-07-23T06:02:34;15.70;99.90
26051;DHT22;13825;53.496;10.020;2022-07-23T06:05:01;15.60;99.90
26051;DHT22;13825;53.496;10.020;2022-07-23T06:07:28;15.60;1.00
26051;DHT22;13825;53.496;10.020;2022-07-23T06:09:57;15.70;1.00
26051;DHT22;13825;53.496;10.020;2022-07-23T06:12:24;15.70;99.90
26051;DHT22;13825;53.496;10.020;2022-07-23T06:14:51;15.60;99.90
26051;DHT22;13825;53.496;10.020;2022-07-23T06:17:18;15.90;99.90
26051;DHT22;13825;53.496;10.020;2022-07-23T06:19:45;15.70;99.90
26051;DHT22;13825;53.496;10.020;2022-07-23T06:22:11;15.80;1.00
26051;DHT22;13825;53.496;10.020;2022-07-23T06:24:38;15.80;99.90
26051;DHT22;13825;53.496;10.020;2022-07-23T06:27:06;16.00;99.90
26051;DHT22;13825;53.496;10.020;2022-07-23T06:29:35;16.10;1.00
26051;DHT22;13825;53.496;10.020;2022-07-23T06:32:02;16.20;1.00
26051;DHT22;13825;53.496;10.020;2022-07-23T06:34:29;16.30;1.00
26051;DHT22;13825;53.496;10.020;2022-07-23T06:36:56;16.30;99.90
26051;DHT22;13825;53.496;10.020;2022-07-23T06:39:23;16.40;99.90
26051;DHT22;13825;53.496;10.020;2022-07-23T06:41:50;16.40;99.90
26051;DHT22;13825;53.496;10.020;2022-07-23T06:44:18;16.40;99.90
26051;DHT22;13825;53.496;10.020;2022-07-23T06:46:45;16.50;1.00
26051;DHT22;13825;53.496;10.020;2022-07-23T06:49:12;16.50;99.90
26051;DHT22;13825;53.496;10.020;2022-07-23T06:51:39;16.60;99.90
26051;DHT22;13825;53.496;10.020;2022-07-23T06:54:09;16.40;11.60
26051;DHT22;13825;53.496;10.020;2022-07-23T06:56:37;16.50;1.00
26051;DHT22;13825;53.496;10.020;2022-07-23T06:59:04;16.40;99.90
26051;DHT22;13825;53.496;10.020;2022-07-23T07:01:34;16.30;1.00
26051;DHT22;13825;53.496;10.020;2022-07-23T07:04:01;16.40;1.00
26051;DHT22;13825;53.496;10.020;2022-07-23T07:06:27;16.30;99.90
26051;DHT22;13825;53.496;10.020;2022-07-23T07:08:54;16.40;1.00
26051;DHT22;13825;53.496;10.020;2022-07-23T07:11:22;16.40;1.00
26051;DHT22;13825;53.496;10.020;2022-07-23T07:13:49;16.50;99.90
26051;DHT22;13825;53.496;10.020;2022-07-23T07:16:16;16.60;99.90
26051;DHT22;13825;53.496;10.020;2022-07-23T07:18:44;16.50;99.90
26051;DHT22;13825;53.496;10.020;2022-07-23T07:21:11;16.50;99.90
26051;DHT22;13825;53.496;10.020;2022-07-23T07:23:38;16.50;99.90
26051;DHT22;13825;53.496;10.020;2022-07-23T07:26:05;16.50;99.90
26051;DHT22;13825;53.496;10.020;2022-07-23T07:28:32;16.40;1.00
26051;DHT22;13825;53.496;10.020;2022-07-23T07:30:59;16.50;99.90
26051;DHT22;13825;53.496;10.020;2022-07-23T07:33:26;16.60;78.50
26051;DHT22;13825;53.496;10.020;2022-07-23T07:35:54;16.80;1.00
26051;DHT22;13825;53.496;10.020;2022-07-23T07:38:21;17.00;99.90
26051;DHT22;13825;53.496;10.020;2022-07-23T07:40:47;16.90;99.90
26051;DHT22;13825;53.496;10.020;2022-07-23T07:43:14;17.00;99.90
26051;DHT22;13825;53.496;10.020;2022-07-23T07:45:41;17.10;31.40
26051;DHT22;13825;53.496;10.020;2022-07-23T07:48:08;17.00;99.90
26051;DHT22;13825;53.496;10.020;2022-07-23T07:50:35;16.90;1.00
26051;DHT22;13825;53.496;10.020;2022-07-23T07:53:03;16.80;1.00
26051;DHT22;13825;53.496;10.020;2022-07-23T07:55:30;16.90;99.90
26051;DHT22;13825;53.496;10.020;2022-07-23T07:57:59;16.90;1.00
26051;DHT22;13825;53.496;10.020;2022-07-23T08:00:26;17.00;99.90
26051;DHT22;13825;53.496;10.020;2022-07-23T08:02:54;17.00;1.00
26051;DHT22;13825;53.496;10.020;2022-07-23T08:05:22;17.40;99.90
26051;DHT22;13825;53.496;10.020;2022-07-23T08:07:49;17.60;99.90
26051;DHT22;13825;53.496;10.020;2022-07-23T08:10:18;17.60;99.90
26051;DHT22;13825;53.496;10.020;2022-07-23T08:12:48;17.60;1.00
26051;DHT22;13825;53.496;10.020;2022-07-23T08:15:16;17.40;1.00
26051;DHT22;13825;53.496;10.020;2022-07-23T08:17:44;17.30;99.90
26051;DHT22;13825;53.496;10.020;2022-07-23T08:20:13;17.00;1.00
26051;DHT22;13825;53.496;10.020;2022-07-23T08:22:44;16.90;99.90
26051;DHT22;13825;53.496;10.020;2022-07-23T08:25:12;16.80;1.00
26051;DHT22;13825;53.496;10.020;2022-07-23T08:27:40;16.90;99.90
26051;DHT22;13825;53.496;10.020;2022-07-23T08:30:08;17.20;1.00
26051;DHT22;13825;53.496;10.020;2022-07-23T08:32:51;17.20;1.00
26051;DHT22;13825;53.496;10.020;2022-07-23T08:35:21;17.20;99.90
26051;DHT22;13825;53.496;10.020;2022-07-23T08:37:48;16.80;99.90
26051;DHT22;13825;53.496;10.020;2022-07-23T08:40:15;16.60;99.90
26051;DHT22;13825;53.496;10.020;2022-07-23T08:42:44;16.20;51.10
26051;DHT22;13825;53.496;10.020;2022-07-23T08:45:11;16.20;99.90
26051;DHT22;13825;53.496;10.020;2022-07-23T08:47:39;16.20;1.00
26051;DHT22;13825;53.496;10.020;2022-07-23T08:50:07;16.30;1.00
26051;DHT22;13825;53.496;10.020;2022-07-23T08:52:36;16.50;1.00
26051;DHT22;13825;53.496;10.020;2022-07-23T08:55:04;16.80;99.90
26051;DHT22;13825;53.496;10.020;2022-07-23T08:57:31;16.90;1.00
26051;DHT22;13825;53.496;10.020;2022-07-23T09:00:00;17.20;1.00
26051;DHT22;13825;53.496;10.020;2022-07-23T09:02:27;17.10;1.00
26051;DHT22;13825;53.496;10.020;2022-07-23T09:04:54;17.30;71.60
26051;DHT22;13825;53.496;10.020;2022-07-23T09:07:21;17.40;1.00
26051;DHT22;13825;53.496;10.020;2022-07-23T09:10:05;17.70;1.00
26051;DHT22;13825;53.496;10.020;2022-07-23T09:12:32;17.70;99.90
26051;DHT22;13825;53.496;10.020;2022-07-23T09:15:05;17.80;1.00
26051;DHT22;13825;53.496;10.020;2022-07-23T09:17:37;17.80;91.50
26051;DHT22;13825;53.496;10.020;2022-07-23T09:20:10;17.90;99.90
26051;DHT22;13825;53.496;10.020;2022-07-23T09:22:38;18.20;99.90
26051;DHT22;13825;53.496;10.020;2022-07-23T09:25:09;18.30;99.90
26051;DHT22;13825;53.496;10.020;2022-07-23T09:27:51;18.60;1.00
26051;DHT22;13825;53.496;10.020;2022-07-23T09:30:25;18.70;99.90
26051;DHT22;13825;53.496;10.020;2022-07-23T09:33:09;18.80;1.00
26051;DHT22;13825;53.496;10.020;2022-07-23T09:35:47;18.90;1.00
26051;DHT22;13825;53.496;10.020;2022-07-23T09:38:14;19.00;1.00
26051;DHT22;13825;53.496;10.020;2022-07-23T09:40:42;18.80;99.90
26051;DHT22;13825;53.496;10.020;2022-07-23T09:43:09;19.00;1.00
26051;DHT22;13825;53.496;10.020;2022-07-23T09:45:38;19.10;1.00
26051;DHT22;13825;53.496;10.020;2022-07-23T09:48:13;19.30;99.90
26051;DHT22;13825;53.496;10.020;2022-07-23T09:50:40;19.50;1.00
26051;DHT22;13825;53.496;10.020;2022-07-23T09:53:07;19.80;1.00
26051;DHT22;13825;53.496;10.020;2022-07-23T09:55:36;19.60;1.00
26051;DHT22;13825;53.496;10.020;2022-07-23T09:58:04;19.50;95.70
26051;DHT22;13825;53.496;10.020;2022-07-23T10:00:32;19.30;1.00
26051;DHT22;13825;53.496;10.020;2022-07-23T10:03:01;19.20;26.30
26051;DHT22;13825;53.496;10.020;2022-07-23T10:05:30;19.10;1.00
26051;DHT22;13825;53.496;10.020;2022-07-23T10:07:59;19.00;1.00
26051;DHT22;13825;53.496;10.020;2022-07-23T10:10:27;18.90;99.90
26051;DHT22;13825;53.496;10.020;2022-07-23T10:12:55;18.90;99.90
26051;DHT22;13825;53.496;10.020;2022-07-23T10:15:37;18.80;99.90
26051;DHT22;13825;53.496;10.020;2022-07-23T10:18:10;18.90;99.90
26051;DHT22;13825;53.496;10.020;2022-07-23T10:20:37;18.80;1.00
26051;DHT22;13825;53.496;10.020;2022-07-23T10:23:10;18.50;1.00
26051;DHT22;13825;53.496;10.020;2022-07-23T10:25:43;18.20;1.00
26051;DHT22;13825;53.496;10.020;2022-07-23T10:28:22;18.40;1.00
26051;DHT22;13825;53.496;10.020;2022-07-23T10:31:02;18.80;1.00
26051;DHT22;13825;53.496;10.020;2022-07-23T10:33:41;19.10;1.00
26051;DHT22;13825;53.496;10.020;2022-07-23T10:36:19;19.40;1.00
26051;DHT22;13825;53.496;10.020;2022-07-23T10:38:52;19.60;1.00
26051;DHT22;13825;53.496;10.020;2022-07-23T10:41:31;20.10;1.00
26051;DHT22;13825;53.496;10.020;2022-07-23T10:44:09;20.30;99.90
26051;DHT22;13825;53.496;10.020;2022-07-23T10:46:45;20.40;1.00
26051;DHT22;13825;53.496;10.020;2022-07-23T10:49:27;20.40;1.00
26051;DHT22;13825;53.496;10.020;2022-07-23T10:52:16;20.20;1.00
26051;DHT22;13825;53.496;10.020;2022-07-23T10:54:45;20.50;1.00
26051;DHT22;13825;53.496;10.020;2022-07-23T10:57:13;20.10;1.00
26051;DHT22;13825;53.496;10.020;2022-07-23T11:00:12;20.00;1.00
26051;DHT22;13825;53.496;10.020;2022-07-23T11:02:40;20.40;35.30
26051;DHT22;13825;53.496;10.020;2022-07-23T11:05:10;21.00;75.00
26051;DHT22;13825;53.496;10.020;2022-07-23T11:10:42;21.00;1.00
26051;DHT22;13825;53.496;10.020;2022-07-23T11:13:32;21.10;1.00
26051;DHT22;13825;53.496;10.020;2022-07-23T11:16:07;20.90;1.00
26051;DHT22;13825;53.496;10.020;2022-07-23T11:18:59;20.50;1.00
26051;DHT22;13825;53.496;10.020;2022-07-23T11:21:55;20.30;1.00
26051;DHT22;13825;53.496;10.020;2022-07-23T11:24:24;20.40;1.00
26051;DHT22;13825;53.496;10.020;2022-07-23T11:29:42;20.50;1.00
26051;DHT22;13825;53.496;10.020;2022-07-23T11:32:29;20.40;1.00
26051;DHT22;13825;53.496;10.020;2022-07-23T11:34:56;20.10;1.00
26051;DHT22;13825;53.496;10.020;2022-07-23T11:37:31;20.30;1.00
26051;DHT22;13825;53.496;10.020;2022-07-23T11:39:59;21.10;1.00
26051;DHT22;13825;53.496;10.020;2022-07-23T11:42:26;20.80;1.00
26051;DHT22;13825;53.496;10.020;2022-07-23T11:44:53;20.50;1.00
26051;DHT22;13825;53.496;10.020;2022-07-23T11:47:23;20.30;1.00
26051;DHT22;13825;53.496;10.020;2022-07-23T11:49:54;20.60;1.00
26051;DHT22;13825;53.496;10.020;2022-07-23T11:52:23;20.40;1.00
26051;DHT22;13825;53.496;10.020;2022-07-23T11:54:55;20.30;1.00
26051;DHT22;13825;53.496;10.020;2022-07-23T11:57:30;20.20;1.00
26051;DHT22;13825;53.496;10.020;2022-07-23T12:00:01;20.00;1.00
26051;DHT22;13825;53.496;10.020;2022-07-23T12:02:29;19.80;21.10
26051;DHT22;13825;53.496;10.020;2022-07-23T12:04:56;19.60;78.20
26051;DHT22;13825;53.496;10.020;2022-07-23T12:07:30;19.40;99.90
26051;DHT22;13825;53.496;10.020;2022-07-23T12:10:00;19.40;1.00
26051;DHT22;13825;53.496;10.020;2022-07-23T12:12:35;19.20;1.00
26051;DHT22;13825;53.496;10.020;2022-07-23T12:15:02;18.90;1.00
26051;DHT22;13825;53.496;10.020;2022-07-23T12:17:32;19.00;18.20
26051;DHT22;13825;53.496;10.020;2022-07-23T12:20:00;19.20;1.00
26051;DHT22;13825;53.496;10.020;2022-07-23T12:22:37;19.30;1.00
26051;DHT22;13825;53.496;10.020;2022-07-23T12:25:08;19.30;1.00
26051;DHT22;13825;53.496;10.020;2022-07-23T12:27:36;19.60;99.90
26051;DHT22;13825;53.496;10.020;2022-07-23T12:30:18;19.60;99.90
26051;DHT22;13825;53.496;10.020;2022-07-23T12:32:46;19.70;99.90
26051;DHT22;13825;53.496;10.020;2022-07-23T12:35:14;19.60;1.00
26051;DHT22;13825;53.496;10.020;2022-07-23T12:37:45;19.40;1.00
26051;DHT22;13825;53.496;10.020;2022-07-23T12:40:22;19.40;99.90
26051;DHT22;13825;53.496;10.020;2022-07-23T12:42:53;19.40;99.90
26051;DHT22;13825;53.496;10.020;2022-07-23T12:45:21;19.90;1.00
26051;DHT22;13825;53.496;10.020;2022-07-23T12:48:01;20.10;1.00
26051;DHT22;13825;53.496;10.020;2022-07-23T12:50:37;20.60;1.00
26051;DHT22;13825;53.496;10.020;2022-07-23T12:53:06;20.60;1.00
26051;DHT22;13825;53.496;10.020;2022-07-23T12:55:35;20.80;1.00
26051;DHT22;13825;53.496;10.020;2022-07-23T12:58:08;20.80;99.90
26051;DHT22;13825;53.496;10.020;2022-07-23T13:00:57;20.80;99.90
26051;DHT22;13825;53.496;10.020;2022-07-23T13:03:26;20.70;99.90
26051;DHT22;13825;53.496;10.020;2022-07-23T13:05:54;20.50;99.90
26051;DHT22;13825;53.496;10.020;2022-07-23T13:08:21;20.20;99.90
26051;DHT22;13825;53.496;10.020;2022-07-23T13:10:53;20.00;99.90
26051;DHT22;13825;53.496;10.020;2022-07-23T13:13:23;20.20;1.00
26051;DHT22;13825;53.496;10.020;2022-07-23T13:15:50;20.20;99.90
26051;DHT22;13825;53.496;10.020;2022-07-23T13:18:18;20.60;99.90
26051;DHT22;13825;53.496;10.020;2022-07-23T13:20:46;20.60;45.80
26051;DHT22;13825;53.496;10.020;2022-07-23T13:23:13;20.40;99.90
26051;DHT22;13825;53.496;10.020;2022-07-23T13:25:40;20.50;99.90
26051;DHT22;13825;53.496;10.020;2022-07-23T13:28:09;20.80;99.90
26051;DHT22;13825;53.496;10.020;2022-07-23T13:30:38;20.70;92.70
26051;DHT22;13825;53.496;10.020;2022-07-23T13:33:05;20.50;51.50
26051;DHT22;13825;53.496;10.020;2022-07-23T13:35:33;20.90;12.10
26051;DHT22;13825;53.496;10.020;2022-07-23T13:38:00;20.90;1.00
26051;DHT22;13825;53.496;10.020;2022-07-23T13:40:28;21.00;1.00
26051;DHT22;13825;53.496;10.020;2022-07-23T13:42:55;21.60;68.30
26051;DHT22;13825;53.496;10.020;2022-07-23T13:45:23;21.70;1.00
26051;DHT22;13825;53.496;10.020;2022-07-23T13:47:53;21.50;1.00
26051;DHT22;13825;53.496;10.020;2022-07-23T13:50:20;21.20;1.00
26051;DHT22;13825;53.496;10.020;2022-07-23T13:52:49;20.90;1.00
26051;DHT22;13825;53.496;10.020;2022-07-23T13:55:16;20.80;1.00
26051;DHT22;13825;53.496;10.020;2022-07-23T13:57:43;21.40;1.00
26051;DHT22;13825;53.496;10.020;2022-07-23T14:00:11;22.60;1.00
26051;DHT22;13825;53.496;10.020;2022-07-23T14:02:40;22.50;1.00
26051;DHT22;13825;53.496;10.020;2022-07-23T14:05:10;22.50;1.00
26051;DHT22;13825;53.496;10.020;2022-07-23T14:07:37;22.40;1.00
26051;DHT22;13825;53.496;10.020;2022-07-23T14:10:06;22.30;1.00
26051;DHT22;13825;53.496;10.020;2022-07-23T14:12:33;22.70;1.00
26051;DHT22;13825;53.496;10.020;2022-07-23T14:15:00;22.80;1.00
26051;DHT22;13825;53.496;10.020;2022-07-23T14:17:27;22.20;1.00
26051;DHT22;13825;53.496;10.020;2022-07-23T14:19:56;22.00;1.00
26051;DHT22;13825;53.496;10.020;2022-07-23T14:22:22;21.80;1.00
26051;DHT22;13825;53.496;10.020;2022-07-23T14:24:52;21.80;1.00
26051;DHT22;13825;53.496;10.020;2022-07-23T14:27:23;21.60;1.00
26051;DHT22;13825;53.496;10.020;2022-07-23T14:29:50;21.00;1.00
26051;DHT22;13825;53.496;10.020;2022-07-23T14:32:17;21.10;1.00
26051;DHT22;13825;53.496;10.020;2022-07-23T14:34:44;21.60;1.00
26051;DHT22;13825;53.496;10.020;2022-07-23T14:37:12;22.70;1.00
26051;DHT22;13825;53.496;10.020;2022-07-23T14:39:39;23.70;1.00
26051;DHT22;13825;53.496;10.020;2022-07-23T14:42:06;24.00;1.00
26051;DHT22;13825;53.496;10.020;2022-07-23T14:44:33;24.50;1.00
26051;DHT22;13825;53.496;10.020;2022-07-23T14:47:00;23.50;1.00
26051;DHT22;13825;53.496;10.020;2022-07-23T14:49:28;23.50;1.00
26051;DHT22;13825;53.496;10.020;2022-07-23T14:51:55;23.60;1.00
26051;DHT22;13825;53.496;10.020;2022-07-23T14:54:24;23.40;1.00
26051;DHT22;13825;53.496;10.020;2022-07-23T14:56:52;22.50;1.00
26051;DHT22;13825;53.496;10.020;2022-07-23T14:59:20;21.60;1.00
26051;DHT22;13825;53.496;10.020;2022-07-23T15:01:47;21.70;1.00
26051;DHT22;13825;53.496;10.020;2022-07-23T15:04:14;21.80;1.00
26051;DHT22;13825;53.496;10.020;2022-07-23T15:06:41;22.00;1.00
26051;DHT22;13825;53.496;10.020;2022-07-23T15:09:09;22.00;1.00
26051;DHT22;13825;53.496;10.020;2022-07-23T15:11:37;22.70;1.00
26051;DHT22;13825;53.496;10.020;2022-07-23T15:14:04;22.80;1.00
26051;DHT22;13825;53.496;10.020;2022-07-23T15:16:32;22.60;1.00
26051;DHT22;13825;53.496;10.020;2022-07-23T15:18:59;21.90;1.00
26051;DHT22;13825;53.496;10.020;2022-07-23T15:21:27;21.30;1.00
26051;DHT22;13825;53.496;10.020;2022-07-23T15:23:55;20.90;1.00
26051;DHT22;13825;53.496;10.020;2022-07-23T15:26:24;20.70;1.00
26051;DHT22;13825;53.496;10.020;2022-07-23T15:28:54;20.60;1.00
26051;DHT22;13825;53.496;10.020;2022-07-23T15:31:21;21.20;1.00
26051;DHT22;13825;53.496;10.020;2022-07-23T15:33:51;21.80;1.00
26051;DHT22;13825;53.496;10.020;2022-07-23T15:36:18;23.10;1.00
26051;DHT22;13825;53.496;10.020;2022-07-23T15:38:48;23.00;1.00
26051;DHT22;13825;53.496;10.020;2022-07-23T15:41:19;22.30;1.00
26051;DHT22;13825;53.496;10.020;2022-07-23T15:43:47;22.10;1.00
26051;DHT22;13825;53.496;10.020;2022-07-23T15:46:16;21.30;1.00
26051;DHT22;13825;53.496;10.020;2022-07-23T15:48:45;21.00;1.00
26051;DHT22;13825;53.496;10.020;2022-07-23T15:51:15;22.20;1.00